createdAt,value
2023-02-15T00:01:08.451Z,82.70
2023-02-15T00:03:37.483Z,82.40
2023-02-15T00:06:07.776Z,75.50
2023-02-15T00:08:35.951Z,76.20
2023-02-15T00:11:09.104Z,61.83
2023-02-15T00:13:39.765Z,100.77
2023-02-15T00:16:10.191Z,77.27
2023-02-15T00:18:39.292Z,51.13
2023-02-15T00:21:11.672Z,47.03
2023-02-15T00:23:39.610Z,48.90
2023-02-15T00:26:09.218Z,63.90
2023-02-15T00:28:37.451Z,59.27
2023-02-15T00:31:07.251Z,57.93
2023-02-15T00:33:35.561Z,53.90
2023-02-15T00:36:04.340Z,66.63
2023-02-15T00:38:34.741Z,56.83
2023-02-15T00:41:05.640Z,63.03
2023-02-15T00:43:35.035Z,54.87
2023-02-15T00:46:04.438Z,54.97
2023-02-15T00:48:33.069Z,63.43
2023-02-15T00:51:02.366Z,64.47
2023-02-15T00:53:31.586Z,68.73
2023-02-15T00:56:01.471Z,79.07
2023-02-15T00:58:29.725Z,72.53
2023-02-15T01:01:04.150Z,72.77
2023-02-15T01:03:32.520Z,64.27
2023-02-15T01:06:00.980Z,66.83
2023-02-15T01:08:29.404Z,64.17
2023-02-15T01:10:57.589Z,65.40
2023-02-15T01:13:27.088Z,59.90
2023-02-15T01:15:56.972Z,54.97
2023-02-15T01:18:25.567Z,63.70
2023-02-15T01:20:53.475Z,64.53
2023-02-15T01:23:22.010Z,62.67
2023-02-15T01:25:50.500Z,57.30
2023-02-15T01:28:18.545Z,55.17
2023-02-15T01:30:48.082Z,52.23
2023-02-15T01:33:19.050Z,55.27
2023-02-15T01:35:47.796Z,56.30
2023-02-15T01:38:15.970Z,52.83
2023-02-15T01:40:44.034Z,53.53
2023-02-15T01:43:13.720Z,56.27
2023-02-15T01:45:45.264Z,53.83
2023-02-15T01:48:23.449Z,50.87
2023-02-15T01:50:55.605Z,56.10
2023-02-15T01:53:27.099Z,56.63
2023-02-15T01:55:59.669Z,68.17
2023-02-15T01:58:31.626Z,64.70
2023-02-15T02:01:01.965Z,71.13
2023-02-15T02:03:40.934Z,56.07
2023-02-15T02:06:09.438Z,54.60
2023-02-15T02:08:38.065Z,56.00
2023-02-15T02:11:12.331Z,51.80
2023-02-15T02:13:41.567Z,54.77
2023-02-15T02:16:16.943Z,53.60
2023-02-15T02:19:00.990Z,56.00
2023-02-15T02:22:01.692Z,59.53
2023-02-15T02:24:55.144Z,50.43
2023-02-15T02:27:35.208Z,52.90
2023-02-15T02:30:53.320Z,52.70
2023-02-15T02:33:42.276Z,52.63
2023-02-15T02:36:18.525Z,52.10
2023-02-15T02:38:57.538Z,60.57
2023-02-15T02:41:33.860Z,56.50
2023-02-15T02:44:10.226Z,57.53
2023-02-15T02:46:48.423Z,53.43
2023-02-15T02:49:17.898Z,61.60
2023-02-15T02:51:45.864Z,74.27
2023-02-15T02:54:13.912Z,67.60
2023-02-15T02:56:45.273Z,70.43
2023-02-15T02:59:18.395Z,59.17
2023-02-15T03:01:53.064Z,58.77
2023-02-15T03:04:26.939Z,55.47
2023-02-15T03:06:59.907Z,55.80
2023-02-15T03:09:42.542Z,53.17
2023-02-15T03:12:12.109Z,67.70
2023-02-15T03:14:42.641Z,58.40
2023-02-15T03:17:12.063Z,57.83
2023-02-15T03:19:42.422Z,54.90
2023-02-15T03:22:15.710Z,54.37
2023-02-15T03:24:51.133Z,52.77
2023-02-15T03:27:23.293Z,54.27
2023-02-15T03:29:55.245Z,57.30
2023-02-15T03:32:24.757Z,58.23
2023-02-15T03:34:54.475Z,55.77
2023-02-15T03:37:28.444Z,50.87
2023-02-15T03:40:21.040Z,51.57
2023-02-15T03:42:53.316Z,53.70
2023-02-15T03:45:27.810Z,62.63
2023-02-15T03:47:58.423Z,50.73
2023-02-15T03:50:49.291Z,51.20
2023-02-15T03:53:22.029Z,52.10
2023-02-15T03:55:50.573Z,53.00
2023-02-15T03:58:36.103Z,60.53
2023-02-15T04:01:32.892Z,56.73
2023-02-15T04:04:05.738Z,57.73
2023-02-15T04:06:36.253Z,60.53
2023-02-15T04:09:21.587Z,53.20
2023-02-15T04:11:49.668Z,54.27
2023-02-15T04:14:31.583Z,55.70
2023-02-15T04:16:59.880Z,51.93
2023-02-15T04:19:45.614Z,51.53
2023-02-15T04:22:32.601Z,54.57
2023-02-15T04:25:13.437Z,65.50
2023-02-15T04:27:44.036Z,65.27
2023-02-15T04:30:13.963Z,60.40
2023-02-15T04:32:42.395Z,58.67
2023-02-15T04:35:11.433Z,49.80
2023-02-15T04:37:41.375Z,52.43
2023-02-15T04:40:12.519Z,50.97
2023-02-15T04:42:40.886Z,60.60
2023-02-15T04:45:09.575Z,59.97
2023-02-15T04:47:37.772Z,54.77
2023-02-15T04:50:06.964Z,51.13
2023-02-15T04:52:35.033Z,54.60
2023-02-15T04:55:04.496Z,61.03
2023-02-15T04:57:32.957Z,57.67
2023-02-15T05:00:01.561Z,54.07
2023-02-15T05:02:29.840Z,49.10
2023-02-15T05:04:57.891Z,48.23
2023-02-15T05:07:26.077Z,49.63
2023-02-15T05:09:54.256Z,55.87
2023-02-15T05:12:23.912Z,56.80
2023-02-15T05:14:51.824Z,51.43
2023-02-15T05:17:19.881Z,50.70
2023-02-15T05:19:47.950Z,62.27
2023-02-15T05:22:16.202Z,59.43
2023-02-15T05:25:01.743Z,56.67
2023-02-15T05:27:47.918Z,53.33
2023-02-15T05:30:16.604Z,59.77
2023-02-15T05:32:44.799Z,59.20
2023-02-15T05:35:16.778Z,58.80
2023-02-15T05:37:45.037Z,50.33
2023-02-15T05:40:13.845Z,52.63
2023-02-15T05:42:43.548Z,58.63
2023-02-15T05:45:11.740Z,57.90
2023-02-15T05:47:39.710Z,60.87
2023-02-15T05:50:08.860Z,66.27
2023-02-15T05:52:37.021Z,61.30
2023-02-15T05:55:05.305Z,62.07
2023-02-15T05:57:33.435Z,61.53
2023-02-15T06:00:05.434Z,58.13
2023-02-15T06:02:36.041Z,61.67
2023-02-15T06:05:04.621Z,65.40
2023-02-15T06:07:32.944Z,59.20
2023-02-15T06:10:00.818Z,59.67
2023-02-15T06:12:28.888Z,46.87
2023-02-15T06:14:56.950Z,55.37
2023-02-15T06:17:26.440Z,50.33
2023-02-15T06:19:54.475Z,56.90
2023-02-15T06:22:22.820Z,76.40
2023-02-15T06:24:50.854Z,68.10
2023-02-15T06:27:18.740Z,63.73
2023-02-15T06:29:46.833Z,60.83
2023-02-15T06:32:15.384Z,60.57
2023-02-15T06:34:45.105Z,57.60
2023-02-15T06:37:13.349Z,62.97
2023-02-15T06:39:41.411Z,53.97
2023-02-15T06:42:09.501Z,69.30
2023-02-15T06:44:37.532Z,64.97
2023-02-15T06:47:05.951Z,68.63
2023-02-15T06:49:34.122Z,68.73
2023-02-15T06:52:03.737Z,72.20
2023-02-15T06:54:32.204Z,68.50
2023-02-15T06:57:00.381Z,67.20
2023-02-15T06:59:28.337Z,64.93
2023-02-15T07:01:56.434Z,57.60
2023-02-15T07:04:24.712Z,61.53
2023-02-15T07:06:54.185Z,62.47
2023-02-15T07:09:24.287Z,59.13
2023-02-15T07:12:09.661Z,59.93
2023-02-15T07:14:37.605Z,59.53
2023-02-15T07:17:11.771Z,60.37
2023-02-15T07:19:46.574Z,65.37
2023-02-15T07:22:14.749Z,69.63
2023-02-15T07:24:44.269Z,69.03
2023-02-15T07:27:13.607Z,76.20
2023-02-15T07:29:42.035Z,80.87
2023-02-15T07:32:10.143Z,79.27
2023-02-15T07:34:38.428Z,74.40
2023-02-15T07:37:06.548Z,81.90
2023-02-15T07:39:34.590Z,76.07
2023-02-15T07:42:04.203Z,86.50
2023-02-15T07:44:32.806Z,70.83
2023-02-15T07:47:00.823Z,76.13
2023-02-15T07:49:28.909Z,86.30
2023-02-15T07:51:57.358Z,76.60
2023-02-15T07:54:25.604Z,81.23
2023-02-15T07:56:53.807Z,80.50
2023-02-15T07:59:23.229Z,83.30
2023-02-15T08:01:51.256Z,81.73
2023-02-15T08:04:19.193Z,85.57
2023-02-15T08:06:47.205Z,75.67
2023-02-15T08:09:15.343Z,87.00
2023-02-15T08:11:44.040Z,83.40
2023-02-15T08:14:13.395Z,79.17
2023-02-15T08:16:44.116Z,80.23
2023-02-15T08:19:14.459Z,74.73
2023-02-15T08:21:44.920Z,84.30
2023-02-15T08:24:14.411Z,84.73
2023-02-15T08:26:44.893Z,91.60
2023-02-15T08:29:13.337Z,77.53
2023-02-15T08:31:43.233Z,87.93
2023-02-15T08:34:13.479Z,86.53
2023-02-15T08:36:41.653Z,81.63
2023-02-15T08:39:10.024Z,88.37
2023-02-15T08:41:39.945Z,77.60
2023-02-15T08:44:10.529Z,84.27
2023-02-15T08:46:40.578Z,85.67
2023-02-15T08:49:10.549Z,83.07
2023-02-15T08:51:40.583Z,76.60
2023-02-15T08:54:11.496Z,83.50
2023-02-15T08:56:42.558Z,76.30
2023-02-15T08:59:17.080Z,81.43
2023-02-15T09:01:45.688Z,84.17
2023-02-15T09:04:16.826Z,78.17
2023-02-15T09:06:48.329Z,89.67
2023-02-15T09:09:17.743Z,86.77
2023-02-15T09:11:47.520Z,83.67
2023-02-15T09:14:17.475Z,78.80
2023-02-15T09:16:48.500Z,87.20
2023-02-15T09:19:19.136Z,81.83
2023-02-15T09:21:50.445Z,78.70
2023-02-15T09:24:19.532Z,83.20
2023-02-15T09:26:49.427Z,82.80
2023-02-15T09:29:18.538Z,77.67
2023-02-15T09:31:48.306Z,82.20
2023-02-15T09:34:19.742Z,75.90
2023-02-15T09:36:52.090Z,78.50
2023-02-15T09:39:22.215Z,73.13
2023-02-15T09:42:13.778Z,75.13
2023-02-15T09:45:00.116Z,73.10
2023-02-15T09:47:58.198Z,67.57
2023-02-15T09:50:38.581Z,65.87
2023-02-15T09:53:27.379Z,69.43
2023-02-15T09:56:02.883Z,69.47
2023-02-15T09:58:42.079Z,70.23
2023-02-15T10:01:16.039Z,67.40
2023-02-15T10:03:55.422Z,64.43
2023-02-15T10:06:45.347Z,65.70
2023-02-15T10:09:31.952Z,70.70
2023-02-15T10:12:18.605Z,74.70
2023-02-15T10:15:14.728Z,69.53
2023-02-15T10:17:56.851Z,68.17
2023-02-15T10:20:34.464Z,63.57
2023-02-15T10:23:18.472Z,67.83
2023-02-15T10:25:53.713Z,64.60
2023-02-15T10:28:25.955Z,63.53
2023-02-15T10:30:58.795Z,70.43
2023-02-15T10:33:40.798Z,66.77
2023-02-15T10:36:22.456Z,65.43
2023-02-15T10:39:00.065Z,67.47
2023-02-15T10:41:40.147Z,69.60
2023-02-15T10:44:31.301Z,69.47
2023-02-15T10:47:14.574Z,59.83
2023-02-15T10:50:07.505Z,63.30
2023-02-15T10:52:46.802Z,64.57
2023-02-15T10:55:23.726Z,61.10
2023-02-15T10:57:58.206Z,58.42
2023-02-15T11:00:39.214Z,62.38
2023-02-15T11:03:35.583Z,61.22
2023-02-15T11:06:07.361Z,66.57
2023-02-15T11:08:39.092Z,61.35
2023-02-15T11:11:11.504Z,63.53
2023-02-15T11:13:44.225Z,62.80
2023-02-15T11:16:18.610Z,57.17
2023-02-15T11:18:52.085Z,60.05
2023-02-15T11:21:24.201Z,60.97
2023-02-15T11:23:53.597Z,63.00
2023-02-15T11:26:29.055Z,63.10
2023-02-15T11:29:01.984Z,55.50
2023-02-15T11:31:43.509Z,55.00
2023-02-15T11:34:19.713Z,57.95
2023-02-15T11:36:49.671Z,57.47
2023-02-15T11:39:20.325Z,59.03
2023-02-15T11:41:55.121Z,61.13
2023-02-15T11:44:27.227Z,56.22
2023-02-15T11:46:55.554Z,63.78
2023-02-15T11:49:26.909Z,61.20
2023-02-15T11:51:56.194Z,62.67
2023-02-15T11:54:29.235Z,55.90
2023-02-15T11:57:03.701Z,56.60
2023-02-15T11:59:37.698Z,58.80
2023-02-15T12:02:16.885Z,54.80
2023-02-15T12:04:50.743Z,57.53
2023-02-15T12:07:26.490Z,53.90
2023-02-15T12:10:01.781Z,56.22
2023-02-15T12:12:33.111Z,51.42
2023-02-15T12:15:03.228Z,58.35
2023-02-15T12:17:34.381Z,57.58
2023-02-15T12:20:06.305Z,54.65
2023-02-15T12:22:37.234Z,51.45
2023-02-15T12:25:22.902Z,53.47
2023-02-15T12:27:52.693Z,53.53
2023-02-15T12:30:25.287Z,56.80
2023-02-15T12:32:56.160Z,53.90
2023-02-15T12:35:31.750Z,57.17
2023-02-15T12:38:04.295Z,50.90
2023-02-15T12:40:34.315Z,52.35
2023-02-15T12:43:09.485Z,53.88
2023-02-15T12:45:39.267Z,53.80
2023-02-15T12:48:16.952Z,49.80
2023-02-15T12:50:46.120Z,53.30
2023-02-15T12:53:20.008Z,55.00
2023-02-15T12:55:57.292Z,50.35
2023-02-15T12:58:31.512Z,50.67
2023-02-15T13:01:22.235Z,48.83
2023-02-15T13:04:00.058Z,48.17
2023-02-15T13:06:33.275Z,55.58
2023-02-15T13:09:10.515Z,48.45
2023-02-15T13:11:39.221Z,53.38
2023-02-15T13:14:19.799Z,52.42
2023-02-15T13:16:50.281Z,51.63
2023-02-15T13:19:20.803Z,60.10
2023-02-15T13:21:50.898Z,57.50
2023-02-15T13:24:24.920Z,53.08
2023-02-15T13:27:01.043Z,52.17
2023-02-15T13:29:40.485Z,57.03
2023-02-15T13:32:19.761Z,60.45
2023-02-15T13:34:47.970Z,52.88
2023-02-15T13:37:22.460Z,54.55
2023-02-15T13:39:55.037Z,56.45
2023-02-15T13:42:31.696Z,56.08
2023-02-15T13:45:23.355Z,57.13
2023-02-15T13:47:58.787Z,52.95
2023-02-15T13:50:38.312Z,50.08
2023-02-15T13:53:23.937Z,53.67
2023-02-15T13:55:54.411Z,56.70
2023-02-15T13:58:48.157Z,51.88
2023-02-15T14:01:25.006Z,55.33
2023-02-15T14:04:20.141Z,52.95
2023-02-15T14:07:00.574Z,48.85
2023-02-15T14:09:42.644Z,49.20
2023-02-15T14:12:25.716Z,52.38
2023-02-15T14:15:16.693Z,48.65
2023-02-15T14:18:02.097Z,47.22
2023-02-15T14:20:43.682Z,51.42
2023-02-15T14:23:33.172Z,50.42
2023-02-15T14:26:06.016Z,44.28
2023-02-15T14:28:41.548Z,45.72
2023-02-15T14:31:13.809Z,44.35
2023-02-15T14:33:52.648Z,44.10
2023-02-15T14:36:22.051Z,49.15
2023-02-15T14:39:01.863Z,48.97
2023-02-15T14:41:37.662Z,43.92
2023-02-15T14:44:15.086Z,46.10
2023-02-15T14:46:50.214Z,45.38
2023-02-15T14:49:23.186Z,44.08
2023-02-15T14:52:06.239Z,50.72
2023-02-15T14:55:02.385Z,41.65
2023-02-15T14:57:37.350Z,44.00
2023-02-15T15:00:39.799Z,46.20
2023-02-15T15:03:25.205Z,49.30
2023-02-15T15:05:59.545Z,49.97
2023-02-15T15:08:38.248Z,46.38
2023-02-15T15:11:44.132Z,43.88
2023-02-15T15:14:13.335Z,50.13
2023-02-15T15:16:53.745Z,41.55
2023-02-15T15:19:58.248Z,43.75
2023-02-15T15:22:27.834Z,44.88
2023-02-15T15:24:58.926Z,46.95
2023-02-15T15:27:46.119Z,45.17
2023-02-15T15:31:03.184Z,50.33
2023-02-15T15:34:07.289Z,48.13
2023-02-15T15:37:11.109Z,46.95
2023-02-15T15:40:20.045Z,47.88
2023-02-15T15:42:54.133Z,43.75
2023-02-15T15:45:45.517Z,48.75
2023-02-15T15:48:31.997Z,47.10
2023-02-15T15:51:04.484Z,47.30
2023-02-15T15:53:37.449Z,47.13
2023-02-15T15:56:08.436Z,48.13
2023-02-15T15:58:36.878Z,53.28
2023-02-15T16:01:09.679Z,51.67
2023-02-15T16:03:37.744Z,49.90
2023-02-15T16:06:15.978Z,48.25
2023-02-15T16:08:44.229Z,46.97
2023-02-15T16:11:15.847Z,50.35
2023-02-15T16:13:44.789Z,46.15
2023-02-15T16:16:15.203Z,51.72
2023-02-15T16:18:47.854Z,48.60
2023-02-15T16:21:21.380Z,56.95
2023-02-15T16:24:37.291Z,54.92
2023-02-15T16:27:17.531Z,55.75
2023-02-15T16:29:45.662Z,60.65
2023-02-15T16:32:20.511Z,54.65
2023-02-15T16:34:56.923Z,55.20
2023-02-15T16:37:28.363Z,52.38
2023-02-15T16:39:57.342Z,55.85
2023-02-15T16:42:26.492Z,55.92
2023-02-15T16:45:01.314Z,53.10
2023-02-15T16:47:32.795Z,58.05
2023-02-15T16:50:05.009Z,60.28
2023-02-15T16:52:34.579Z,57.10
2023-02-15T16:55:05.920Z,56.92
2023-02-15T16:57:37.259Z,58.35
2023-02-15T17:00:08.540Z,55.28
2023-02-15T17:02:55.012Z,54.33
2023-02-15T17:05:24.745Z,54.25
2023-02-15T17:08:09.126Z,55.55
2023-02-15T17:10:40.156Z,52.50
2023-02-15T17:13:13.408Z,48.72
2023-02-15T17:15:43.180Z,44.88
2023-02-15T17:18:18.786Z,51.22
2023-02-15T17:20:47.967Z,53.55
2023-02-15T17:23:25.077Z,47.08
2023-02-15T17:25:54.065Z,44.40
2023-02-15T17:28:24.220Z,45.10
2023-02-15T17:30:54.193Z,39.33
2023-02-15T17:33:29.742Z,44.53
2023-02-15T17:36:05.978Z,45.25
2023-02-15T17:38:35.662Z,48.33
2023-02-15T17:41:04.089Z,51.63
2023-02-15T17:43:35.724Z,45.33
2023-02-15T17:46:04.231Z,44.13
2023-02-15T17:48:37.538Z,49.33
2023-02-15T17:51:09.268Z,51.72
2023-02-15T17:53:39.807Z,44.13
2023-02-15T17:56:10.676Z,47.22
2023-02-15T17:58:40.869Z,47.72
2023-02-15T18:01:32.452Z,46.95
2023-02-15T18:04:18.013Z,48.13
2023-02-15T18:07:03.956Z,47.15
2023-02-15T18:09:51.309Z,49.85
2023-02-15T18:12:23.444Z,49.13
2023-02-15T18:14:53.184Z,47.30
2023-02-15T18:17:31.741Z,47.22
2023-02-15T18:20:01.574Z,49.08
2023-02-15T18:22:33.477Z,48.97
2023-02-15T18:25:03.338Z,49.35
2023-02-15T18:27:33.325Z,54.17
2023-02-15T18:30:01.508Z,53.88
2023-02-15T18:32:34.909Z,51.75
2023-02-15T18:35:04.610Z,54.72
2023-02-15T18:37:34.174Z,58.03
2023-02-15T18:40:05.119Z,57.75
2023-02-15T18:42:36.597Z,57.08
2023-02-15T18:45:17.452Z,61.50
2023-02-15T18:47:46.032Z,52.47
2023-02-15T18:50:14.466Z,49.72
2023-02-15T18:52:44.069Z,52.00
2023-02-15T18:55:19.586Z,53.97
2023-02-15T18:57:48.969Z,51.30
2023-02-15T19:00:21.082Z,51.28
2023-02-15T19:02:49.463Z,53.38
2023-02-15T19:05:18.495Z,53.88
2023-02-15T19:07:48.638Z,53.67
2023-02-15T19:10:22.314Z,59.33
2023-02-15T19:12:51.301Z,52.58
2023-02-15T19:15:21.701Z,51.17
2023-02-15T19:17:49.826Z,51.67
2023-02-15T19:20:20.037Z,54.65
2023-02-15T19:22:49.091Z,50.45
2023-02-15T19:25:21.420Z,53.47
2023-02-15T19:27:53.541Z,56.35
2023-02-15T19:30:25.097Z,52.33
2023-02-15T19:32:53.150Z,51.55
2023-02-15T19:35:22.946Z,53.75
2023-02-15T19:37:53.722Z,49.88
2023-02-15T19:40:25.595Z,52.75
2023-02-15T19:42:54.145Z,49.42
2023-02-15T19:45:24.601Z,49.63
2023-02-15T19:47:54.296Z,51.20
2023-02-15T19:50:25.013Z,50.85
2023-02-15T19:52:53.422Z,47.05
2023-02-15T19:55:26.617Z,48.45
2023-02-15T19:57:57.725Z,50.65
2023-02-15T20:00:28.554Z,47.67
2023-02-15T20:02:58.055Z,52.25
2023-02-15T20:05:26.853Z,51.13
2023-02-15T20:07:55.128Z,47.50
2023-02-15T20:10:32.496Z,52.22
2023-02-15T20:13:00.997Z,49.92
2023-02-15T20:15:34.558Z,49.75
2023-02-15T20:18:04.308Z,51.00
2023-02-15T20:20:35.968Z,48.92
2023-02-15T20:23:04.911Z,47.05
2023-02-15T20:25:37.387Z,44.72
2023-02-15T20:28:05.744Z,48.20
2023-02-15T20:30:34.205Z,47.90
2023-02-15T20:33:02.347Z,53.28
2023-02-15T20:35:32.559Z,51.20
2023-02-15T20:38:02.647Z,48.00
2023-02-15T20:40:33.636Z,44.88
2023-02-15T20:43:03.143Z,47.35
2023-02-15T20:45:34.853Z,49.25
2023-02-15T20:48:03.881Z,49.38
2023-02-15T20:50:35.824Z,46.15
2023-02-15T20:53:04.216Z,50.50
2023-02-15T20:55:34.422Z,51.75
2023-02-15T20:58:10.828Z,51.47
2023-02-15T21:00:38.769Z,53.20
2023-02-15T21:03:13.931Z,54.67
2023-02-15T21:05:42.012Z,55.25
2023-02-15T21:08:14.548Z,53.38
2023-02-15T21:10:45.352Z,52.45
2023-02-15T21:13:22.541Z,53.30
2023-02-15T21:15:52.238Z,57.10
2023-02-15T21:18:23.414Z,52.45
2023-02-15T21:20:54.820Z,56.05
2023-02-15T21:23:25.703Z,57.00
2023-02-15T21:25:55.953Z,54.97
2023-02-15T21:28:27.627Z,56.38
2023-02-15T21:30:57.690Z,56.15
2023-02-15T21:33:27.033Z,55.95
2023-02-15T21:35:57.864Z,58.00
2023-02-15T21:38:30.220Z,61.92
2023-02-15T21:41:19.354Z,57.08
2023-02-15T21:44:06.206Z,56.72
2023-02-15T21:46:53.990Z,56.95
2023-02-15T21:49:22.116Z,61.67
2023-02-15T21:52:09.557Z,62.38
2023-02-15T21:54:37.789Z,57.83
2023-02-15T21:57:05.808Z,58.67
2023-02-15T21:59:35.470Z,63.65
2023-02-15T22:02:03.678Z,63.58
2023-02-15T22:04:32.484Z,63.85
2023-02-15T22:07:00.454Z,61.72
2023-02-15T22:09:28.946Z,61.88
2023-02-15T22:11:56.990Z,63.00
2023-02-15T22:14:44.720Z,62.17
2023-02-15T22:17:16.899Z,64.70
2023-02-15T22:19:45.694Z,63.53
2023-02-15T22:22:14.412Z,65.75
2023-02-15T22:24:43.313Z,67.72
2023-02-15T22:27:19.880Z,63.88
2023-02-15T22:29:50.099Z,63.22
2023-02-15T22:32:19.917Z,63.58
2023-02-15T22:34:48.409Z,66.07
2023-02-15T22:37:17.167Z,67.18
2023-02-15T22:39:45.101Z,72.32
2023-02-15T22:42:24.556Z,69.68
2023-02-15T22:44:55.214Z,71.00
2023-02-15T22:47:25.486Z,67.33
2023-02-15T22:49:54.444Z,67.17
2023-02-15T22:52:23.109Z,67.40
2023-02-15T22:54:51.173Z,75.97
2023-02-15T22:57:24.631Z,70.25
2023-02-15T22:59:54.245Z,69.90
2023-02-15T23:02:22.306Z,68.53
2023-02-15T23:04:50.389Z,72.25
2023-02-15T23:07:19.662Z,70.25
2023-02-15T23:09:48.346Z,75.23
2023-02-15T23:12:25.845Z,69.30
2023-02-15T23:14:55.755Z,70.35
2023-02-15T23:17:25.497Z,72.57
2023-02-15T23:19:53.595Z,75.43
2023-02-15T23:22:21.827Z,74.67
2023-02-15T23:24:53.873Z,73.60
2023-02-15T23:27:39.333Z,74.90
2023-02-15T23:30:15.099Z,72.90
2023-02-15T23:32:43.235Z,72.95
2023-02-15T23:35:15.348Z,73.40
2023-02-15T23:37:43.882Z,75.57
2023-02-15T23:40:33.492Z,76.30
2023-02-15T23:43:01.422Z,79.17
2023-02-15T23:45:34.850Z,83.23
2023-02-15T23:48:20.292Z,75.93
2023-02-15T23:50:48.317Z,80.83
2023-02-15T23:53:16.394Z,73.70
2023-02-15T23:55:45.986Z,80.63
2023-02-15T23:58:18.497Z,79.13
